sensor_id;sensor_type;location;lat;lon;timestamp;P1;durP1;ratioP1;P2;durP2;ratioP2
62419;SDS011;48460;51.616;5.426;2022-12-07T00:01:44;14.18;;;7.80;;
62419;SDS011;48460;51.616;5.426;2022-12-07T00:04:13;17.20;;;8.77;;
62419;SDS011;48460;51.616;5.426;2022-12-07T00:06:51;16.02;;;8.57;;
62419;SDS011;48460;51.616;5.426;2022-12-07T00:09:18;15.23;;;8.43;;
62419;SDS011;48460;51.616;5.426;2022-12-07T00:11:50;19.42;;;8.82;;
62419;SDS011;48460;51.616;5.426;2022-12-07T00:14:17;18.90;;;9.00;;
62419;SDS011;48460;51.616;5.426;2022-12-07T00:16:43;16.10;;;8.35;;
62419;SDS011;48460;51.616;5.426;2022-12-07T00:19:13;16.80;;;9.20;;
62419;SDS011;48460;51.616;5.426;2022-12-07T00:21:42;14.73;;;8.70;;
62419;SDS011;48460;51.616;5.426;2022-12-07T00:24:12;18.65;;;9.45;;
62419;SDS011;48460;51.616;5.426;2022-12-07T00:26:38;16.80;;;9.07;;
62419;SDS011;48460;51.616;5.426;2022-12-07T00:29:09;15.88;;;8.82;;
62419;SDS011;48460;51.616;5.426;2022-12-07T00:31:46;16.65;;;8.88;;
62419;SDS011;48460;51.616;5.426;2022-12-07T00:34:13;12.98;;;8.55;;
62419;SDS011;48460;51.616;5.426;2022-12-07T00:36:41;12.57;;;8.43;;
62419;SDS011;48460;51.616;5.426;2022-12-07T00:39:10;11.73;;;8.35;;
62419;SDS011;48460;51.616;5.426;2022-12-07T00:41:44;14.88;;;8.60;;
62419;SDS011;48460;51.616;5.426;2022-12-07T00:44:09;15.02;;;9.00;;
62419;SDS011;48460;51.616;5.426;2022-12-07T00:46:35;16.83;;;9.02;;
62419;SDS011;48460;51.616;5.426;2022-12-07T00:49:11;15.85;;;7.95;;
62419;SDS011;48460;51.616;5.426;2022-12-07T00:51:39;16.65;;;9.07;;
62419;SDS011;48460;51.616;5.426;2022-12-07T00:54:07;14.45;;;9.05;;
62419;SDS011;48460;51.616;5.426;2022-12-07T00:56:36;13.80;;;8.57;;
62419;SDS011;48460;51.616;5.426;2022-12-07T00:59:06;16.63;;;9.07;;
62419;SDS011;48460;51.616;5.426;2022-12-07T01:01:33;15.20;;;8.23;;
62419;SDS011;48460;51.616;5.426;2022-12-07T01:04:03;18.08;;;8.23;;
62419;SDS011;48460;51.616;5.426;2022-12-07T01:06:29;14.98;;;7.82;;
62419;SDS011;48460;51.616;5.426;2022-12-07T01:09:03;13.60;;;7.53;;
62419;SDS011;48460;51.616;5.426;2022-12-07T01:11:31;12.13;;;7.68;;
62419;SDS011;48460;51.616;5.426;2022-12-07T01:14:04;14.57;;;7.82;;
62419;SDS011;48460;51.616;5.426;2022-12-07T01:16:31;15.75;;;8.00;;
62419;SDS011;48460;51.616;5.426;2022-12-07T01:18:57;14.82;;;8.25;;
62419;SDS011;48460;51.616;5.426;2022-12-07T01:21:26;13.55;;;8.50;;
62419;SDS011;48460;51.616;5.426;2022-12-07T01:23:57;14.50;;;8.63;;
62419;SDS011;48460;51.616;5.426;2022-12-07T01:26:28;18.00;;;9.20;;
62419;SDS011;48460;51.616;5.426;2022-12-07T01:28:54;14.60;;;8.52;;
62419;SDS011;48460;51.616;5.426;2022-12-07T01:31:23;13.10;;;8.60;;
62419;SDS011;48460;51.616;5.426;2022-12-07T01:33:52;18.60;;;9.20;;
62419;SDS011;48460;51.616;5.426;2022-12-07T01:36:23;16.70;;;8.60;;
62419;SDS011;48460;51.616;5.426;2022-12-07T01:39:12;16.67;;;9.00;;
62419;SDS011;48460;51.616;5.426;2022-12-07T01:41:55;14.80;;;7.97;;
62419;SDS011;48460;51.616;5.426;2022-12-07T01:44:25;16.50;;;7.93;;
62419;SDS011;48460;51.616;5.426;2022-12-07T01:46:53;13.70;;;7.88;;
62419;SDS011;48460;51.616;5.426;2022-12-07T01:49:32;16.05;;;8.02;;
62419;SDS011;48460;51.616;5.426;2022-12-07T01:52:14;15.40;;;7.07;;
62419;SDS011;48460;51.616;5.426;2022-12-07T01:54:45;19.83;;;7.95;;
62419;SDS011;48460;51.616;5.426;2022-12-07T01:57:14;15.27;;;7.25;;
62419;SDS011;48460;51.616;5.426;2022-12-07T01:59:43;15.05;;;7.47;;
62419;SDS011;48460;51.616;5.426;2022-12-07T02:02:13;11.68;;;7.38;;
62419;SDS011;48460;51.616;5.426;2022-12-07T02:04:47;11.88;;;6.90;;
62419;SDS011;48460;51.616;5.426;2022-12-07T02:07:21;14.60;;;6.47;;
62419;SDS011;48460;51.616;5.426;2022-12-07T02:09:52;13.55;;;7.13;;
62419;SDS011;48460;51.616;5.426;2022-12-07T02:12:17;14.65;;;6.68;;
62419;SDS011;48460;51.616;5.426;2022-12-07T02:14:49;14.90;;;6.72;;
62419;SDS011;48460;51.616;5.426;2022-12-07T02:17:25;14.15;;;6.60;;
62419;SDS011;48460;51.616;5.426;2022-12-07T02:32:23;17.38;;;6.65;;
62419;SDS011;48460;51.616;5.426;2022-12-07T02:34:58;14.32;;;6.82;;
62419;SDS011;48460;51.616;5.426;2022-12-07T02:40:38;12.50;;;6.35;;
62419;SDS011;48460;51.616;5.426;2022-12-07T02:43:14;15.82;;;6.65;;
62419;SDS011;48460;51.616;5.426;2022-12-07T02:45:47;19.55;;;7.15;;
62419;SDS011;48460;51.616;5.426;2022-12-07T02:48:16;11.85;;;6.38;;
62419;SDS011;48460;51.616;5.426;2022-12-07T02:50:44;15.80;;;7.20;;
62419;SDS011;48460;51.616;5.426;2022-12-07T02:53:41;12.10;;;6.63;;
62419;SDS011;48460;51.616;5.426;2022-12-07T03:04:32;9.25;;;5.97;;
62419;SDS011;48460;51.616;5.426;2022-12-07T03:12:24;18.20;;;6.53;;
62419;SDS011;48460;51.616;5.426;2022-12-07T03:15:13;12.60;;;6.07;;
62419;SDS011;48460;51.616;5.426;2022-12-07T03:17:43;12.43;;;6.03;;
62419;SDS011;48460;51.616;5.426;2022-12-07T03:20:14;12.23;;;5.80;;
62419;SDS011;48460;51.616;5.426;2022-12-07T03:22:43;11.50;;;6.28;;
62419;SDS011;48460;51.616;5.426;2022-12-07T03:25:13;10.65;;;6.13;;
62419;SDS011;48460;51.616;5.426;2022-12-07T03:27:51;10.98;;;6.10;;
62419;SDS011;48460;51.616;5.426;2022-12-07T03:30:25;13.03;;;6.70;;
62419;SDS011;48460;51.616;5.426;2022-12-07T03:33:02;13.90;;;6.25;;
62419;SDS011;48460;51.616;5.426;2022-12-07T03:36:11;11.27;;;6.28;;
62419;SDS011;48460;51.616;5.426;2022-12-07T03:38:54;16.45;;;6.68;;
62419;SDS011;48460;51.616;5.426;2022-12-07T03:41:28;13.82;;;6.70;;
62419;SDS011;48460;51.616;5.426;2022-12-07T03:43:56;13.48;;;7.07;;
62419;SDS011;48460;51.616;5.426;2022-12-07T03:49:30;15.70;;;6.43;;
62419;SDS011;48460;51.616;5.426;2022-12-07T03:52:12;17.35;;;6.88;;
62419;SDS011;48460;51.616;5.426;2022-12-07T03:54:56;14.73;;;7.05;;
62419;SDS011;48460;51.616;5.426;2022-12-07T03:57:29;12.23;;;6.05;;
62419;SDS011;48460;51.616;5.426;2022-12-07T03:59:58;13.35;;;6.22;;
62419;SDS011;48460;51.616;5.426;2022-12-07T04:02:23;14.00;;;6.75;;
62419;SDS011;48460;51.616;5.426;2022-12-07T04:04:51;13.35;;;6.43;;
62419;SDS011;48460;51.616;5.426;2022-12-07T04:07:17;11.85;;;7.07;;
62419;SDS011;48460;51.616;5.426;2022-12-07T04:09:42;11.05;;;6.10;;
62419;SDS011;48460;51.616;5.426;2022-12-07T04:12:08;13.27;;;5.95;;
62419;SDS011;48460;51.616;5.426;2022-12-07T04:14:33;12.68;;;6.20;;
62419;SDS011;48460;51.616;5.426;2022-12-07T04:16:59;15.27;;;6.18;;
62419;SDS011;48460;51.616;5.426;2022-12-07T04:19:28;11.27;;;6.00;;
62419;SDS011;48460;51.616;5.426;2022-12-07T04:21:55;12.38;;;6.32;;
62419;SDS011;48460;51.616;5.426;2022-12-07T04:24:22;11.68;;;5.68;;
62419;SDS011;48460;51.616;5.426;2022-12-07T04:26:48;12.88;;;6.00;;
62419;SDS011;48460;51.616;5.426;2022-12-07T04:29:14;12.98;;;6.35;;
62419;SDS011;48460;51.616;5.426;2022-12-07T04:31:40;13.50;;;6.20;;
62419;SDS011;48460;51.616;5.426;2022-12-07T04:34:06;12.10;;;5.85;;
62419;SDS011;48460;51.616;5.426;2022-12-07T04:36:32;9.80;;;5.55;;
62419;SDS011;48460;51.616;5.426;2022-12-07T04:38:58;9.70;;;5.60;;
62419;SDS011;48460;51.616;5.426;2022-12-07T04:41:24;13.77;;;5.70;;
62419;SDS011;48460;51.616;5.426;2022-12-07T04:43:53;13.52;;;5.65;;
62419;SDS011;48460;51.616;5.426;2022-12-07T04:46:24;11.75;;;5.80;;
62419;SDS011;48460;51.616;5.426;2022-12-07T04:48:50;11.63;;;5.57;;
62419;SDS011;48460;51.616;5.426;2022-12-07T04:51:18;8.73;;;5.32;;
62419;SDS011;48460;51.616;5.426;2022-12-07T04:53:48;10.93;;;5.13;;
62419;SDS011;48460;51.616;5.426;2022-12-07T04:56:14;10.88;;;5.43;;
62419;SDS011;48460;51.616;5.426;2022-12-07T04:58:41;14.02;;;4.88;;
62419;SDS011;48460;51.616;5.426;2022-12-07T05:01:07;12.45;;;5.35;;
62419;SDS011;48460;51.616;5.426;2022-12-07T05:03:32;13.45;;;5.22;;
62419;SDS011;48460;51.616;5.426;2022-12-07T05:05:58;9.90;;;4.75;;
62419;SDS011;48460;51.616;5.426;2022-12-07T05:08:23;9.52;;;5.03;;
62419;SDS011;48460;51.616;5.426;2022-12-07T05:10:49;10.55;;;4.88;;
62419;SDS011;48460;51.616;5.426;2022-12-07T05:13:14;12.57;;;5.18;;
62419;SDS011;48460;51.616;5.426;2022-12-07T05:15:40;14.13;;;5.57;;
62419;SDS011;48460;51.616;5.426;2022-12-07T05:18:07;13.45;;;4.93;;
62419;SDS011;48460;51.616;5.426;2022-12-07T05:20:39;12.35;;;5.18;;
62419;SDS011;48460;51.616;5.426;2022-12-07T05:23:05;9.25;;;5.50;;
62419;SDS011;48460;51.616;5.426;2022-12-07T05:25:31;9.38;;;4.97;;
62419;SDS011;48460;51.616;5.426;2022-12-07T05:27:57;14.48;;;5.53;;
62419;SDS011;48460;51.616;5.426;2022-12-07T05:30:23;8.88;;;4.82;;
62419;SDS011;48460;51.616;5.426;2022-12-07T05:32:49;10.38;;;5.55;;
62419;SDS011;48460;51.616;5.426;2022-12-07T05:35:16;10.48;;;4.97;;
62419;SDS011;48460;51.616;5.426;2022-12-07T05:37:41;14.30;;;5.50;;
62419;SDS011;48460;51.616;5.426;2022-12-07T05:40:07;10.60;;;5.18;;
62419;SDS011;48460;51.616;5.426;2022-12-07T05:42:33;13.45;;;5.55;;
62419;SDS011;48460;51.616;5.426;2022-12-07T05:44:59;10.43;;;5.35;;
62419;SDS011;48460;51.616;5.426;2022-12-07T05:47:25;13.43;;;5.13;;
62419;SDS011;48460;51.616;5.426;2022-12-07T05:49:50;13.48;;;5.40;;
62419;SDS011;48460;51.616;5.426;2022-12-07T05:52:15;8.07;;;5.05;;
62419;SDS011;48460;51.616;5.426;2022-12-07T05:54:41;9.63;;;5.10;;
62419;SDS011;48460;51.616;5.426;2022-12-07T05:57:07;10.38;;;5.60;;
62419;SDS011;48460;51.616;5.426;2022-12-07T05:59:32;13.90;;;5.85;;
62419;SDS011;48460;51.616;5.426;2022-12-07T06:02:02;13.07;;;5.75;;
62419;SDS011;48460;51.616;5.426;2022-12-07T06:04:33;13.70;;;5.38;;
62419;SDS011;48460;51.616;5.426;2022-12-07T06:07:00;9.80;;;5.43;;
62419;SDS011;48460;51.616;5.426;2022-12-07T06:09:26;11.82;;;5.47;;
62419;SDS011;48460;51.616;5.426;2022-12-07T06:11:53;11.80;;;6.10;;
62419;SDS011;48460;51.616;5.426;2022-12-07T06:14:38;12.15;;;5.95;;
62419;SDS011;48460;51.616;5.426;2022-12-07T06:17:04;10.65;;;5.20;;
62419;SDS011;48460;51.616;5.426;2022-12-07T06:19:29;10.70;;;5.32;;
62419;SDS011;48460;51.616;5.426;2022-12-07T06:21:55;9.50;;;5.43;;
62419;SDS011;48460;51.616;5.426;2022-12-07T06:24:23;12.10;;;6.15;;
62419;SDS011;48460;51.616;5.426;2022-12-07T06:26:49;11.85;;;6.30;;
62419;SDS011;48460;51.616;5.426;2022-12-07T06:29:15;11.98;;;6.03;;
62419;SDS011;48460;51.616;5.426;2022-12-07T06:31:41;11.40;;;6.20;;
62419;SDS011;48460;51.616;5.426;2022-12-07T06:34:12;11.05;;;6.30;;
62419;SDS011;48460;51.616;5.426;2022-12-07T06:36:39;17.20;;;6.57;;
62419;SDS011;48460;51.616;5.426;2022-12-07T06:39:05;17.17;;;7.43;;
62419;SDS011;48460;51.616;5.426;2022-12-07T06:41:34;15.57;;;6.88;;
62419;SDS011;48460;51.616;5.426;2022-12-07T06:44:03;12.70;;;7.07;;
62419;SDS011;48460;51.616;5.426;2022-12-07T06:46:32;18.35;;;7.45;;
62419;SDS011;48460;51.616;5.426;2022-12-07T06:48:57;11.85;;;7.13;;
62419;SDS011;48460;51.616;5.426;2022-12-07T06:51:23;12.52;;;7.00;;
62419;SDS011;48460;51.616;5.426;2022-12-07T06:53:49;13.13;;;6.85;;
62419;SDS011;48460;51.616;5.426;2022-12-07T06:56:16;14.55;;;7.57;;
62419;SDS011;48460;51.616;5.426;2022-12-07T06:58:42;16.33;;;7.00;;
62419;SDS011;48460;51.616;5.426;2022-12-07T07:01:08;15.45;;;6.85;;
62419;SDS011;48460;51.616;5.426;2022-12-07T07:03:38;14.48;;;7.07;;
62419;SDS011;48460;51.616;5.426;2022-12-07T07:06:04;14.82;;;7.20;;
62419;SDS011;48460;51.616;5.426;2022-12-07T07:08:30;16.05;;;7.55;;
62419;SDS011;48460;51.616;5.426;2022-12-07T07:10:56;15.02;;;7.57;;
62419;SDS011;48460;51.616;5.426;2022-12-07T07:13:21;16.20;;;8.05;;
62419;SDS011;48460;51.616;5.426;2022-12-07T07:15:50;13.68;;;7.75;;
62419;SDS011;48460;51.616;5.426;2022-12-07T07:18:18;14.82;;;8.30;;
62419;SDS011;48460;51.616;5.426;2022-12-07T07:20:43;17.88;;;7.82;;
62419;SDS011;48460;51.616;5.426;2022-12-07T07:23:17;23.67;;;9.27;;
62419;SDS011;48460;51.616;5.426;2022-12-07T07:28:09;17.50;;;8.02;;
62419;SDS011;48460;51.616;5.426;2022-12-07T07:30:36;17.33;;;8.25;;
62419;SDS011;48460;51.616;5.426;2022-12-07T07:33:03;17.15;;;8.65;;
62419;SDS011;48460;51.616;5.426;2022-12-07T07:35:30;14.05;;;7.93;;
62419;SDS011;48460;51.616;5.426;2022-12-07T07:37:57;18.13;;;7.85;;
62419;SDS011;48460;51.616;5.426;2022-12-07T07:40:23;19.70;;;8.25;;
62419;SDS011;48460;51.616;5.426;2022-12-07T07:42:49;19.85;;;7.72;;
62419;SDS011;48460;51.616;5.426;2022-12-07T07:45:16;16.67;;;8.50;;
62419;SDS011;48460;51.616;5.426;2022-12-07T07:47:44;15.88;;;8.35;;
62419;SDS011;48460;51.616;5.426;2022-12-07T07:50:10;17.75;;;8.18;;
62419;SDS011;48460;51.616;5.426;2022-12-07T07:52:36;21.70;;;8.57;;
62419;SDS011;48460;51.616;5.426;2022-12-07T07:55:01;15.85;;;7.53;;
62419;SDS011;48460;51.616;5.426;2022-12-07T07:57:27;19.23;;;8.65;;
62419;SDS011;48460;51.616;5.426;2022-12-07T07:59:55;21.05;;;8.38;;
62419;SDS011;48460;51.616;5.426;2022-12-07T08:02:23;16.90;;;7.35;;
62419;SDS011;48460;51.616;5.426;2022-12-07T08:04:48;16.50;;;7.35;;
62419;SDS011;48460;51.616;5.426;2022-12-07T08:07:14;13.50;;;7.45;;
62419;SDS011;48460;51.616;5.426;2022-12-07T08:09:40;14.65;;;7.00;;
62419;SDS011;48460;51.616;5.426;2022-12-07T08:12:06;14.15;;;7.55;;
62419;SDS011;48460;51.616;5.426;2022-12-07T08:14:33;20.17;;;7.50;;
62419;SDS011;48460;51.616;5.426;2022-12-07T08:16:59;16.48;;;7.05;;
62419;SDS011;48460;51.616;5.426;2022-12-07T08:19:25;17.30;;;7.18;;
62419;SDS011;48460;51.616;5.426;2022-12-07T08:21:50;22.25;;;7.93;;
62419;SDS011;48460;51.616;5.426;2022-12-07T08:24:20;18.77;;;8.50;;
62419;SDS011;48460;51.616;5.426;2022-12-07T08:26:45;24.40;;;9.35;;
62419;SDS011;48460;51.616;5.426;2022-12-07T08:29:11;24.73;;;9.10;;
62419;SDS011;48460;51.616;5.426;2022-12-07T08:31:36;18.83;;;8.45;;
62419;SDS011;48460;51.616;5.426;2022-12-07T08:34:02;18.20;;;7.65;;
62419;SDS011;48460;51.616;5.426;2022-12-07T08:36:28;24.02;;;8.68;;
62419;SDS011;48460;51.616;5.426;2022-12-07T08:38:53;22.63;;;7.32;;
62419;SDS011;48460;51.616;5.426;2022-12-07T08:41:19;18.60;;;7.45;;
62419;SDS011;48460;51.616;5.426;2022-12-07T08:43:46;15.55;;;7.05;;
62419;SDS011;48460;51.616;5.426;2022-12-07T08:46:34;19.55;;;6.50;;
62419;SDS011;48460;51.616;5.426;2022-12-07T08:49:08;21.00;;;7.20;;
62419;SDS011;48460;51.616;5.426;2022-12-07T08:51:38;18.63;;;7.20;;
62419;SDS011;48460;51.616;5.426;2022-12-07T08:54:05;18.00;;;6.85;;
62419;SDS011;48460;51.616;5.426;2022-12-07T08:56:34;19.13;;;6.18;;
62419;SDS011;48460;51.616;5.426;2022-12-07T08:59:00;16.42;;;6.70;;
62419;SDS011;48460;51.616;5.426;2022-12-07T09:01:26;14.95;;;5.75;;
62419;SDS011;48460;51.616;5.426;2022-12-07T09:03:52;15.75;;;5.78;;
62419;SDS011;48460;51.616;5.426;2022-12-07T09:06:17;19.40;;;6.35;;
62419;SDS011;48460;51.616;5.426;2022-12-07T09:08:44;16.67;;;5.82;;
62419;SDS011;48460;51.616;5.426;2022-12-07T09:11:12;17.70;;;5.70;;
62419;SDS011;48460;51.616;5.426;2022-12-07T09:13:38;14.00;;;5.43;;
62419;SDS011;48460;51.616;5.426;2022-12-07T09:16:03;21.42;;;5.85;;
62419;SDS011;48460;51.616;5.426;2022-12-07T09:18:29;12.95;;;5.60;;
62419;SDS011;48460;51.616;5.426;2022-12-07T09:20:55;15.25;;;5.50;;
62419;SDS011;48460;51.616;5.426;2022-12-07T09:23:21;15.18;;;5.45;;
62419;SDS011;48460;51.616;5.426;2022-12-07T09:25:47;18.55;;;5.57;;
62419;SDS011;48460;51.616;5.426;2022-12-07T09:28:12;14.85;;;5.85;;
62419;SDS011;48460;51.616;5.426;2022-12-07T09:30:38;14.00;;;6.03;;
62419;SDS011;48460;51.616;5.426;2022-12-07T09:33:03;15.10;;;6.05;;
62419;SDS011;48460;51.616;5.426;2022-12-07T09:35:28;13.73;;;6.70;;
62419;SDS011;48460;51.616;5.426;2022-12-07T09:37:54;17.85;;;6.70;;
62419;SDS011;48460;51.616;5.426;2022-12-07T09:40:20;16.42;;;7.10;;
62419;SDS011;48460;51.616;5.426;2022-12-07T09:42:48;19.77;;;6.68;;
62419;SDS011;48460;51.616;5.426;2022-12-07T09:45:19;12.07;;;5.72;;
62419;SDS011;48460;51.616;5.426;2022-12-07T09:50:16;14.57;;;5.05;;
62419;SDS011;48460;51.616;5.426;2022-12-07T09:52:45;14.13;;;5.32;;
62419;SDS011;48460;51.616;5.426;2022-12-07T09:55:13;13.82;;;5.05;;
62419;SDS011;48460;51.616;5.426;2022-12-07T09:57:49;11.98;;;4.30;;
62419;SDS011;48460;51.616;5.426;2022-12-07T10:00:17;12.48;;;4.15;;
62419;SDS011;48460;51.616;5.426;2022-12-07T10:02:56;14.80;;;4.45;;
62419;SDS011;48460;51.616;5.426;2022-12-07T10:05:35;12.15;;;4.07;;
62419;SDS011;48460;51.616;5.426;2022-12-07T10:08:05;11.40;;;4.22;;
62419;SDS011;48460;51.616;5.426;2022-12-07T10:10:33;13.18;;;4.95;;
62419;SDS011;48460;51.616;5.426;2022-12-07T10:15:50;11.50;;;4.28;;
62419;SDS011;48460;51.616;5.426;2022-12-07T10:18:26;11.13;;;3.97;;
62419;SDS011;48460;51.616;5.426;2022-12-07T10:31:48;13.07;;;4.60;;
62419;SDS011;48460;51.616;5.426;2022-12-07T10:34:24;13.32;;;4.32;;
62419;SDS011;48460;51.616;5.426;2022-12-07T10:36:52;15.50;;;4.28;;
62419;SDS011;48460;51.616;5.426;2022-12-07T10:39:22;12.65;;;4.30;;
62419;SDS011;48460;51.616;5.426;2022-12-07T10:44:28;11.73;;;3.78;;
62419;SDS011;48460;51.616;5.426;2022-12-07T10:55:19;9.05;;;4.20;;
62419;SDS011;48460;51.616;5.426;2022-12-07T10:57:59;14.63;;;4.88;;
62419;SDS011;48460;51.616;5.426;2022-12-07T11:00:53;10.77;;;4.20;;
62419;SDS011;48460;51.616;5.426;2022-12-07T11:03:37;13.70;;;4.32;;
62419;SDS011;48460;51.616;5.426;2022-12-07T11:06:33;9.18;;;3.80;;
62419;SDS011;48460;51.616;5.426;2022-12-07T11:09:06;15.73;;;4.22;;
62419;SDS011;48460;51.616;5.426;2022-12-07T11:11:58;11.00;;;4.05;;
62419;SDS011;48460;51.616;5.426;2022-12-07T11:17:17;10.98;;;4.22;;
62419;SDS011;48460;51.616;5.426;2022-12-07T11:25:02;13.45;;;4.22;;
62419;SDS011;48460;51.616;5.426;2022-12-07T11:30:43;11.38;;;3.83;;
62419;SDS011;48460;51.616;5.426;2022-12-07T11:33:13;10.73;;;5.15;;
62419;SDS011;48460;51.616;5.426;2022-12-07T11:35:49;12.18;;;4.10;;
62419;SDS011;48460;51.616;5.426;2022-12-07T11:38:33;10.25;;;3.40;;
62419;SDS011;48460;51.616;5.426;2022-12-07T11:41:06;13.10;;;3.75;;
62419;SDS011;48460;51.616;5.426;2022-12-07T11:46:36;11.90;;;3.75;;
62419;SDS011;48460;51.616;5.426;2022-12-07T11:49:40;13.70;;;3.70;;
62419;SDS011;48460;51.616;5.426;2022-12-07T11:52:13;13.75;;;3.50;;
62419;SDS011;48460;51.616;5.426;2022-12-07T11:54:45;17.15;;;3.47;;
62419;SDS011;48460;51.616;5.426;2022-12-07T11:57:18;10.07;;;3.50;;
62419;SDS011;48460;51.616;5.426;2022-12-07T11:59:52;10.32;;;3.35;;
62419;SDS011;48460;51.616;5.426;2022-12-07T12:02:26;10.88;;;3.65;;
62419;SDS011;48460;51.616;5.426;2022-12-07T12:05:07;10.40;;;3.33;;
62419;SDS011;48460;51.616;5.426;2022-12-07T12:07:40;12.90;;;3.58;;
62419;SDS011;48460;51.616;5.426;2022-12-07T12:16:05;12.48;;;3.47;;
62419;SDS011;48460;51.616;5.426;2022-12-07T12:23:51;10.02;;;3.00;;
62419;SDS011;48460;51.616;5.426;2022-12-07T12:26:23;10.90;;;3.08;;
62419;SDS011;48460;51.616;5.426;2022-12-07T12:28:58;11.35;;;3.17;;
62419;SDS011;48460;51.616;5.426;2022-12-07T12:31:37;10.15;;;2.83;;
62419;SDS011;48460;51.616;5.426;2022-12-07T12:34:29;9.20;;;3.00;;
62419;SDS011;48460;51.616;5.426;2022-12-07T12:42:46;9.55;;;2.70;;
62419;SDS011;48460;51.616;5.426;2022-12-07T12:45:25;7.10;;;2.13;;
62419;SDS011;48460;51.616;5.426;2022-12-07T12:50:37;8.32;;;2.60;;
62419;SDS011;48460;51.616;5.426;2022-12-07T12:53:22;5.40;;;2.15;;
62419;SDS011;48460;51.616;5.426;2022-12-07T13:00:42;10.05;;;2.53;;
62419;SDS011;48460;51.616;5.426;2022-12-07T13:03:25;5.53;;;2.28;;
62419;SDS011;48460;51.616;5.426;2022-12-07T13:09:03;7.03;;;1.98;;
62419;SDS011;48460;51.616;5.426;2022-12-07T13:17:02;6.05;;;1.85;;
62419;SDS011;48460;51.616;5.426;2022-12-07T13:20:39;7.40;;;1.92;;
62419;SDS011;48460;51.616;5.426;2022-12-07T13:25:11;5.65;;;1.83;;
62419;SDS011;48460;51.616;5.426;2022-12-07T13:27:38;6.38;;;2.10;;
62419;SDS011;48460;51.616;5.426;2022-12-07T13:30:24;7.10;;;2.30;;
62419;SDS011;48460;51.616;5.426;2022-12-07T13:32:57;6.05;;;2.15;;
62419;SDS011;48460;51.616;5.426;2022-12-07T13:35:36;10.02;;;2.10;;
62419;SDS011;48460;51.616;5.426;2022-12-07T13:38:04;5.68;;;2.00;;
62419;SDS011;48460;51.616;5.426;2022-12-07T13:40:31;6.70;;;1.80;;
62419;SDS011;48460;51.616;5.426;2022-12-07T13:42:57;5.68;;;2.10;;
62419;SDS011;48460;51.616;5.426;2022-12-07T13:45:28;6.63;;;2.20;;
62419;SDS011;48460;51.616;5.426;2022-12-07T13:51:17;7.38;;;2.10;;
62419;SDS011;48460;51.616;5.426;2022-12-07T13:53:51;11.40;;;2.40;;
62419;SDS011;48460;51.616;5.426;2022-12-07T13:56:26;7.28;;;2.08;;
62419;SDS011;48460;51.616;5.426;2022-12-07T13:58:56;7.50;;;2.40;;
62419;SDS011;48460;51.616;5.426;2022-12-07T14:01:22;8.25;;;2.60;;
62419;SDS011;48460;51.616;5.426;2022-12-07T14:03:47;8.15;;;2.65;;
62419;SDS011;48460;51.616;5.426;2022-12-07T14:06:21;7.63;;;2.70;;
62419;SDS011;48460;51.616;5.426;2022-12-07T14:09:09;8.90;;;3.00;;
62419;SDS011;48460;51.616;5.426;2022-12-07T14:11:43;9.20;;;3.03;;
62419;SDS011;48460;51.616;5.426;2022-12-07T14:14:22;11.75;;;3.35;;
62419;SDS011;48460;51.616;5.426;2022-12-07T14:17:25;9.80;;;2.83;;
62419;SDS011;48460;51.616;5.426;2022-12-07T14:19:48;6.43;;;2.80;;
62419;SDS011;48460;51.616;5.426;2022-12-07T14:22:25;8.30;;;2.53;;
62419;SDS011;48460;51.616;5.426;2022-12-07T14:27:47;4.82;;;2.20;;
62419;SDS011;48460;51.616;5.426;2022-12-07T14:30:18;6.60;;;2.50;;
62419;SDS011;48460;51.616;5.426;2022-12-07T14:32:44;6.65;;;2.60;;
62419;SDS011;48460;51.616;5.426;2022-12-07T14:35:13;7.32;;;2.63;;
62419;SDS011;48460;51.616;5.426;2022-12-07T14:37:41;7.75;;;3.17;;
62419;SDS011;48460;51.616;5.426;2022-12-07T14:40:09;6.03;;;2.60;;
62419;SDS011;48460;51.616;5.426;2022-12-07T14:42:38;5.00;;;2.20;;
62419;SDS011;48460;51.616;5.426;2022-12-07T14:45:05;4.50;;;2.10;;
62419;SDS011;48460;51.616;5.426;2022-12-07T14:47:31;5.38;;;2.03;;
62419;SDS011;48460;51.616;5.426;2022-12-07T14:49:57;6.45;;;2.10;;
62419;SDS011;48460;51.616;5.426;2022-12-07T14:52:27;4.35;;;2.13;;
62419;SDS011;48460;51.616;5.426;2022-12-07T14:54:55;2.85;;;1.95;;
62419;SDS011;48460;51.616;5.426;2022-12-07T14:57:20;2.42;;;1.70;;
62419;SDS011;48460;51.616;5.426;2022-12-07T14:59:48;3.30;;;1.85;;
62419;SDS011;48460;51.616;5.426;2022-12-07T15:02:16;4.18;;;1.90;;
62419;SDS011;48460;51.616;5.426;2022-12-07T15:04:42;2.85;;;1.77;;
62419;SDS011;48460;51.616;5.426;2022-12-07T15:07:18;4.13;;;2.10;;
62419;SDS011;48460;51.616;5.426;2022-12-07T15:09:46;3.30;;;1.92;;
62419;SDS011;48460;51.616;5.426;2022-12-07T15:12:12;3.35;;;2.00;;
62419;SDS011;48460;51.616;5.426;2022-12-07T15:14:37;5.45;;;2.03;;
62419;SDS011;48460;51.616;5.426;2022-12-07T15:17:02;3.25;;;1.80;;
62419;SDS011;48460;51.616;5.426;2022-12-07T15:19:28;3.35;;;1.75;;
62419;SDS011;48460;51.616;5.426;2022-12-07T15:21:53;5.88;;;2.15;;
62419;SDS011;48460;51.616;5.426;2022-12-07T15:24:23;6.00;;;2.38;;
62419;SDS011;48460;51.616;5.426;2022-12-07T15:26:49;6.60;;;2.42;;
62419;SDS011;48460;51.616;5.426;2022-12-07T15:29:14;5.65;;;2.35;;
62419;SDS011;48460;51.616;5.426;2022-12-07T15:31:40;5.82;;;2.50;;
62419;SDS011;48460;51.616;5.426;2022-12-07T15:34:06;4.30;;;2.42;;
62419;SDS011;48460;51.616;5.426;2022-12-07T15:36:32;4.32;;;2.22;;
62419;SDS011;48460;51.616;5.426;2022-12-07T15:38:58;4.70;;;2.40;;
62419;SDS011;48460;51.616;5.426;2022-12-07T15:41:24;6.63;;;2.88;;
62419;SDS011;48460;51.616;5.426;2022-12-07T15:43:50;5.03;;;2.45;;
62419;SDS011;48460;51.616;5.426;2022-12-07T15:46:36;3.47;;;2.30;;
62419;SDS011;48460;51.616;5.426;2022-12-07T15:49:04;5.72;;;2.40;;
62419;SDS011;48460;51.616;5.426;2022-12-07T15:51:33;5.13;;;2.35;;
62419;SDS011;48460;51.616;5.426;2022-12-07T15:53:59;5.93;;;2.50;;
62419;SDS011;48460;51.616;5.426;2022-12-07T15:56:24;4.82;;;2.58;;
62419;SDS011;48460;51.616;5.426;2022-12-07T15:58:50;5.45;;;2.60;;
62419;SDS011;48460;51.616;5.426;2022-12-07T16:01:16;5.57;;;2.60;;
62419;SDS011;48460;51.616;5.426;2022-12-07T16:03:43;5.20;;;2.92;;
62419;SDS011;48460;51.616;5.426;2022-12-07T16:06:09;6.25;;;2.90;;
62419;SDS011;48460;51.616;5.426;2022-12-07T16:08:42;7.68;;;3.35;;
62419;SDS011;48460;51.616;5.426;2022-12-07T16:11:16;8.52;;;3.35;;
62419;SDS011;48460;51.616;5.426;2022-12-07T16:13:55;6.75;;;3.90;;
62419;SDS011;48460;51.616;5.426;2022-12-07T16:16:21;6.72;;;4.18;;
62419;SDS011;48460;51.616;5.426;2022-12-07T16:18:49;10.55;;;4.97;;
62419;SDS011;48460;51.616;5.426;2022-12-07T16:21:16;8.95;;;4.80;;
62419;SDS011;48460;51.616;5.426;2022-12-07T16:23:43;9.88;;;4.72;;
62419;SDS011;48460;51.616;5.426;2022-12-07T16:26:11;10.32;;;5.30;;
62419;SDS011;48460;51.616;5.426;2022-12-07T16:28:41;8.32;;;4.70;;
62419;SDS011;48460;51.616;5.426;2022-12-07T16:31:09;9.68;;;4.90;;
62419;SDS011;48460;51.616;5.426;2022-12-07T16:33:38;8.38;;;4.22;;
62419;SDS011;48460;51.616;5.426;2022-12-07T16:36:05;8.13;;;4.13;;
62419;SDS011;48460;51.616;5.426;2022-12-07T16:38:33;10.30;;;3.92;;
62419;SDS011;48460;51.616;5.426;2022-12-07T16:41:00;7.05;;;4.13;;
62419;SDS011;48460;51.616;5.426;2022-12-07T16:43:25;10.45;;;4.32;;
62419;SDS011;48460;51.616;5.426;2022-12-07T16:45:51;8.75;;;4.75;;
62419;SDS011;48460;51.616;5.426;2022-12-07T16:48:18;11.00;;;5.60;;
62419;SDS011;48460;51.616;5.426;2022-12-07T16:50:44;13.05;;;5.13;;
62419;SDS011;48460;51.616;5.426;2022-12-07T16:53:12;8.38;;;4.43;;